Time;durP1;ratioP1;P1;durP2;ratioP2;P2;SDS_P1;SDS_P2;PMS_P1;PMS_P2;Temp;Humidity;BMP_temperature;BMP_pressure;BME280_temperature;BME280_humidity;BME280_pressure;Samples;Min_cycle;Max_cycle;Signal;HPM_P1;HPM_P2
2023/04/16 11:02:49;;;;;;;3.50;3.20;;;20.10;68.30;;;;;;5079386;23;20819;-94
2023/04/16 11:05:45;;;;;;;3.53;3.33;;;20.30;68.70;;;;;;5001382;28;20471;-95
2023/04/16 11:08:17;;;;;;;2.93;2.73;;;20.10;68.40;;;;;;5000313;28;20520;-94
2023/04/16 11:10:44;;;;;;;2.93;2.73;;;20.20;68.20;;;;;;5000828;28;20535;-94
2023/04/16 11:13:13;;;;;;;4.03;3.03;;;20.20;68.10;;;;;;5001435;28;20451;-94
2023/04/16 11:15:39;;;;;;;3.10;2.80;;;20.20;68.10;;;;;;5001142;28;20503;-94
2023/04/16 11:18:09;;;;;;;3.13;2.93;;;20.20;68.00;;;;;;5002027;28;20451;-94
2023/04/16 11:20:41;;;;;;;3.53;3.23;;;20.20;68.10;;;;;;4998420;28;20444;-94
2023/04/16 11:23:12;;;;;;;3.10;2.90;;;20.30;68.30;;;;;;4998802;28;20450;-94
2023/04/16 11:25:38;;;;;;;3.10;2.80;;;20.20;68.30;;;;;;5017440;28;20522;-94
2023/04/16 11:28:05;;;;;;;3.50;3.20;;;20.20;68.20;;;;;;5022592;28;20427;-94
2023/04/16 11:30:34;;;;;;;2.60;2.40;;;20.30;68.30;;;;;;5032893;28;20933;-95
2023/04/16 11:33:02;;;;;;;4.23;3.27;;;20.20;68.20;;;;;;5015323;28;20443;-94
2023/04/16 11:35:31;;;;;;;3.10;2.90;;;20.20;68.20;;;;;;5014879;28;20543;-94
2023/04/16 11:37:58;;;;;;;2.70;2.50;;;20.20;68.20;;;;;;5014969;28;20451;-94
2023/04/16 11:40:29;;;;;;;3.33;3.03;;;20.20;68.20;;;;;;4998053;28;20443;-94
2023/04/16 11:42:56;;;;;;;2.90;2.70;;;20.20;68.30;;;;;;5015277;28;20844;-94
2023/04/16 11:45:22;;;;;;;2.73;2.53;;;20.20;68.20;;;;;;5014505;28;20539;-94
2023/04/16 11:47:51;;;;;;;3.10;2.90;;;20.20;68.30;;;;;;5014659;28;20451;-95
2023/04/16 11:50:21;;;;;;;3.13;2.93;;;20.20;68.30;;;;;;5014970;28;20461;-94
2023/04/16 11:52:50;;;;;;;2.87;2.67;;;20.20;68.20;;;;;;5018765;28;20788;-94
2023/04/16 11:55:17;;;;;;;3.30;3.10;;;20.20;68.10;;;;;;5016327;28;20463;-94
2023/04/16 11:57:44;;;;;;;3.00;2.80;;;20.20;68.10;;;;;;5014780;28;20453;-94
2023/04/16 12:00:13;;;;;;;3.23;2.93;;;20.20;68.10;;;;;;5014629;28;20451;-94
2023/04/16 12:02:41;;;;;;;3.10;2.90;;;20.20;68.10;;;;;;5015037;28;20553;-94
2023/04/16 12:05:27;;;;;;;2.70;2.50;;;20.20;68.20;;;;;;5014521;28;20455;-94
2023/04/16 12:07:56;;;;;;;3.10;2.90;;;20.20;68.20;;;;;;5014604;28;20426;-95
2023/04/16 12:10:23;;;;;;;2.80;2.60;;;20.20;68.10;;;;;;5014545;28;20557;-95
2023/04/16 12:12:49;;;;;;;3.30;3.00;;;20.30;68.20;;;;;;5014855;28;20528;-95
2023/04/16 12:15:16;;;;;;;3.30;3.00;;;20.20;68.10;;;;;;5016941;28;20847;-94
2023/04/16 12:17:43;;;;;;;3.20;2.90;;;20.30;68.20;;;;;;5018275;28;20447;-94
2023/04/16 12:20:12;;;;;;;2.70;2.50;;;20.20;68.00;;;;;;5011089;28;20494;-95
2023/04/16 12:22:40;;;;;;;3.30;3.03;;;20.20;68.00;;;;;;5018821;28;20443;-94
2023/04/16 12:25:12;;;;;;;4.50;3.80;;;20.20;67.90;;;;;;5019060;28;20518;-95
2023/04/16 12:27:46;;;;;;;3.10;2.90;;;20.20;68.00;;;;;;5018607;28;20825;-94
2023/04/16 12:30:14;;;;;;;3.20;3.00;;;20.20;67.90;;;;;;5018826;28;20537;-94
2023/04/16 12:32:41;;;;;;;3.27;2.97;;;20.20;68.00;;;;;;5018743;28;20825;-93
2023/04/16 12:35:09;;;;;;;3.07;2.87;;;20.20;68.00;;;;;;5017894;28;20442;-93
2023/04/16 12:37:36;;;;;;;2.80;2.60;;;20.20;68.20;;;;;;5017726;28;21052;-93
2023/04/16 12:40:04;;;;;;;3.50;3.20;;;20.20;68.10;;;;;;5018146;28;20500;-92
2023/04/16 12:42:34;;;;;;;3.03;2.83;;;20.20;68.10;;;;;;5018034;28;20446;-93
2023/04/16 12:45:02;;;;;;;2.83;2.63;;;20.20;68.10;;;;;;5017939;28;20431;-92
2023/04/16 12:47:29;;;;;;;2.83;2.63;;;20.20;68.10;;;;;;5017554;28;20519;-93
2023/04/16 12:49:57;;;;;;;3.07;2.77;;;20.30;68.30;;;;;;5018171;28;20465;-92
2023/04/16 12:52:24;;;;;;;2.90;2.70;;;20.20;68.10;;;;;;5017917;28;20543;-93
2023/04/16 12:54:52;;;;;;;3.87;3.57;;;20.30;68.20;;;;;;5017957;28;20471;-93
2023/04/16 12:57:19;;;;;;;2.57;2.40;;;20.20;68.00;;;;;;5017789;28;20451;-93
2023/04/16 12:59:47;;;;;;;2.90;2.70;;;20.20;68.00;;;;;;5018410;28;20543;-93
2023/04/16 13:02:14;;;;;;;3.50;3.20;;;20.20;68.00;;;;;;5017381;28;20489;-93
2023/04/16 13:04:41;;;;;;;2.97;2.77;;;20.30;68.10;;;;;;5021427;28;20480;-93
2023/04/16 13:07:08;;;;;;;2.83;2.63;;;20.20;68.00;;;;;;5017663;28;20493;-94
2023/04/16 13:09:35;;;;;;;2.50;2.30;;;20.20;68.10;;;;;;5000286;28;20443;-93
2023/04/16 13:12:02;;;;;;;2.80;2.60;;;20.20;68.10;;;;;;5000582;28;20786;-93
2023/04/16 13:14:29;;;;;;;2.83;2.63;;;20.20;68.00;;;;;;5018559;28;20451;-93
2023/04/16 13:16:59;;;;;;;2.60;2.40;;;20.20;68.10;;;;;;5017694;28;20447;-94
2023/04/16 13:19:25;;;;;;;3.00;2.80;;;20.20;68.20;;;;;;5000675;28;20443;-94
2023/04/16 13:21:53;;;;;;;2.67;2.47;;;20.20;68.10;;;;;;5017562;28;20534;-95
2023/04/16 13:24:20;;;;;;;3.10;2.90;;;20.20;68.00;;;;;;5034148;28;20450;-93
2023/04/16 13:26:47;;;;;;;3.20;2.87;;;20.20;68.10;;;;;;5040587;28;20463;-94
2023/04/16 13:29:14;;;;;;;2.93;2.73;;;20.10;67.90;;;;;;5041598;28;20427;-93
2023/04/16 13:31:43;;;;;;;3.00;2.80;;;20.30;68.10;;;;;;5030415;28;20449;-93
2023/04/16 13:34:11;;;;;;;3.60;3.20;;;20.20;68.10;;;;;;5019353;28;20447;-93
2023/04/16 13:36:39;;;;;;;3.30;3.10;;;20.20;68.10;;;;;;5018900;28;20546;-94
2023/04/16 13:39:10;;;;;;;3.30;2.93;;;20.20;68.10;;;;;;5017612;28;20946;-93
2023/04/16 13:41:36;;;;;;;3.40;3.10;;;20.20;68.30;;;;;;5017513;28;20459;-93
2023/04/16 13:44:03;;;;;;;2.60;2.40;;;20.20;68.30;;;;;;5017333;28;20538;-93
2023/04/16 13:46:30;;;;;;;3.03;2.83;;;20.20;68.30;;;;;;4999680;28;20486;-93
2023/04/16 13:48:57;;;;;;;2.97;2.77;;;20.20;68.40;;;;;;5017479;28;20530;-94
2023/04/16 13:51:26;;;;;;;2.70;2.50;;;20.20;68.40;;;;;;5017456;28;20545;-94
2023/04/16 13:53:56;;;;;;;2.97;2.77;;;20.20;68.50;;;;;;5017230;28;20478;-94
2023/04/16 13:56:23;;;;;;;3.30;3.10;;;20.20;68.50;;;;;;5017587;28;20447;-94
2023/04/16 13:58:51;;;;;;;3.10;2.90;;;20.20;68.60;;;;;;5018771;28;20538;-93
2023/04/16 14:01:18;;;;;;;3.00;2.77;;;20.20;68.60;;;;;;5017956;28;20455;-93
2023/04/16 14:03:44;;;;;;;3.13;2.93;;;20.20;68.50;;;;;;5019251;28;20481;-94
2023/04/16 14:06:12;;;;;;;3.23;2.97;;;20.20;68.40;;;;;;5039472;28;20570;-93
2023/04/16 14:08:40;;;;;;;2.83;2.63;;;20.30;68.60;;;;;;5036769;28;20450;-93
2023/04/16 14:11:08;;;;;;;2.70;2.50;;;20.20;68.50;;;;;;5016378;28;20926;-92
2023/04/16 14:13:35;;;;;;;3.00;2.67;;;20.20;68.40;;;;;;5017754;28;20459;-93
2023/04/16 14:16:02;;;;;;;2.70;2.50;;;20.20;68.50;;;;;;5016485;28;20456;-95
2023/04/16 14:18:29;;;;;;;2.80;2.60;;;20.20;68.50;;;;;;5016432;28;20475;-95
2023/04/16 14:20:57;;;;;;;3.03;2.83;;;20.30;68.60;;;;;;5016171;28;20569;-94
2023/04/16 14:23:24;;;;;;;2.80;2.60;;;20.30;68.50;;;;;;5016221;28;20458;-94
2023/04/16 14:25:54;;;;;;;2.70;2.50;;;20.20;68.40;;;;;;5015693;28;21000;-94
2023/04/16 14:28:20;;;;;;;2.87;2.67;;;20.30;68.40;;;;;;5015970;28;20542;-94
2023/04/16 14:30:47;;;;;;;2.70;2.50;;;20.20;68.30;;;;;;5016834;28;20474;-93
2023/04/16 14:33:15;;;;;;;3.03;2.83;;;20.30;68.40;;;;;;5016885;28;20545;-94
2023/04/16 14:35:42;;;;;;;3.00;2.80;;;20.30;68.30;;;;;;5015950;28;20446;-93
2023/04/16 14:38:09;;;;;;;2.93;2.73;;;20.30;68.30;;;;;;5015382;28;20557;-94
2023/04/16 14:40:36;;;;;;;2.77;2.57;;;20.20;68.30;;;;;;4998976;28;20435;-93
2023/04/16 14:43:05;;;;;;;2.77;2.57;;;20.20;68.20;;;;;;5015456;28;20453;-94
2023/04/16 14:45:32;;;;;;;3.20;2.90;;;20.20;68.30;;;;;;5015704;28;20454;-94
2023/04/16 14:47:59;;;;;;;2.90;2.70;;;20.20;68.30;;;;;;5016301;28;20518;-94
2023/04/16 14:50:26;;;;;;;2.90;2.70;;;20.20;68.30;;;;;;5015373;28;20459;-94
2023/04/16 14:52:53;;;;;;;3.03;2.83;;;20.20;68.30;;;;;;5015311;28;20964;-94
2023/04/16 14:55:20;;;;;;;2.90;2.70;;;20.20;69.20;;;;;;5015309;28;20475;-93
2023/04/16 14:57:47;;;;;;;3.00;2.80;;;20.20;68.40;;;;;;5015735;28;20459;-94
2023/04/16 15:00:17;;;;;;;2.87;2.67;;;20.20;68.20;;;;;;5014973;28;20953;-94
2023/04/16 15:02:44;;;;;;;3.23;3.03;;;20.20;68.20;;;;;;5015141;28;20969;-94
2023/04/16 15:05:11;;;;;;;2.90;2.70;;;20.20;68.20;;;;;;5015237;28;20891;-93
2023/04/16 15:07:38;;;;;;;3.00;2.80;;;20.20;68.20;;;;;;5014945;28;20482;-94
2023/04/16 15:10:06;;;;;;;3.70;3.40;;;20.20;68.20;;;;;;5015477;28;20538;-94
2023/04/16 15:12:33;;;;;;;3.17;2.97;;;20.20;68.20;;;;;;5015173;28;20475;-93
2023/04/16 15:15:00;;;;;;;2.53;2.33;;;20.20;68.20;;;;;;5015151;28;20966;-93
2023/04/16 15:17:28;;;;;;;2.87;2.67;;;20.30;68.30;;;;;;5015080;28;20461;-94
2023/04/16 15:19:55;;;;;;;2.80;2.60;;;20.30;68.20;;;;;;5015171;28;20956;-94
2023/04/16 15:22:22;;;;;;;3.03;2.83;;;20.30;68.30;;;;;;5015923;28;20454;-93
2023/04/16 15:24:49;;;;;;;2.90;2.70;;;20.20;68.10;;;;;;5015425;28;20490;-93
2023/04/16 15:27:18;;;;;;;2.80;2.60;;;20.20;68.10;;;;;;5014824;28;20483;-93
2023/04/16 15:29:45;;;;;;;2.43;2.23;;;20.30;68.30;;;;;;5015506;28;20554;-93
2023/04/16 15:32:12;;;;;;;2.53;2.33;;;20.20;68.10;;;;;;5015096;28;20455;-93
2023/04/16 15:34:41;;;;;;;2.70;2.50;;;20.20;68.20;;;;;;5015157;28;20534;-93
2023/04/16 15:37:08;;;;;;;3.00;2.80;;;20.30;68.20;;;;;;5014932;28;20506;-93
2023/04/16 15:39:35;;;;;;;3.30;3.10;;;20.30;68.30;;;;;;5015694;28;20457;-93
2023/04/16 15:42:04;;;;;;;2.73;2.53;;;20.20;68.10;;;;;;5015535;28;20458;-93
2023/04/16 15:44:31;;;;;;;3.30;3.00;;;20.30;68.30;;;;;;5015278;28;20871;-92
2023/04/16 15:46:59;;;;;;;3.20;3.00;;;20.20;68.10;;;;;;4997248;28;20471;-93
2023/04/16 15:49:26;;;;;;;2.83;2.63;;;20.20;68.00;;;;;;5014013;28;20439;-93
2023/04/16 15:51:55;;;;;;;2.80;2.60;;;20.20;68.00;;;;;;5014923;28;20446;-94
2023/04/16 15:54:22;;;;;;;2.77;2.57;;;20.20;68.00;;;;;;5015446;28;20474;-94
2023/04/16 15:56:49;;;;;;;2.53;2.33;;;20.20;68.00;;;;;;5015130;28;20530;-93
2023/04/16 15:59:16;;;;;;;3.63;3.33;;;20.20;68.00;;;;;;5015565;28;20454;-93
2023/04/16 16:01:42;;;;;;;2.53;2.40;;;20.20;68.00;;;;;;5014283;28;20537;-93
2023/04/16 16:04:10;;;;;;;3.30;3.10;;;20.20;68.00;;;;;;5007416;28;20538;-93
2023/04/16 16:06:37;;;;;;;2.90;2.70;;;20.20;68.00;;;;;;5014703;28;20956;-93
2023/04/16 16:09:06;;;;;;;3.13;2.83;;;20.30;68.10;;;;;;5014859;28;20511;-94
2023/04/16 16:11:34;;;;;;;3.03;2.83;;;20.30;68.10;;;;;;5014770;28;20776;-94
2023/04/16 16:14:01;;;;;;;2.77;2.57;;;20.20;68.00;;;;;;5014676;28;20447;-94
2023/04/16 16:16:28;;;;;;;3.00;2.80;;;20.30;68.20;;;;;;5014765;28;20462;-93
2023/04/16 16:18:55;;;;;;;2.77;2.57;;;20.20;68.00;;;;;;4997207;28;20447;-94
2023/04/16 16:21:22;;;;;;;3.03;2.83;;;20.30;68.20;;;;;;5015484;28;20510;-93
2023/04/16 16:23:49;;;;;;;3.03;2.83;;;20.30;68.20;;;;;;5014617;28;20550;-93
2023/04/16 16:26:19;;;;;;;2.87;2.67;;;20.20;68.10;;;;;;5014414;28;20486;-93
2023/04/16 16:28:46;;;;;;;2.87;2.67;;;20.30;68.20;;;;;;5014285;28;20479;-93
2023/04/16 16:31:13;;;;;;;2.70;2.50;;;20.20;68.10;;;;;;5015339;28;20447;-93
2023/04/16 16:33:40;;;;;;;3.10;2.90;;;20.30;68.20;;;;;;5015210;28;20457;-92
2023/04/16 16:36:10;;;;;;;2.67;2.50;;;20.30;68.30;;;;;;5015608;28;20816;-93
2023/04/16 16:38:38;;;;;;;3.17;2.97;;;20.30;68.30;;;;;;5015358;28;20546;-93
2023/04/16 16:41:06;;;;;;;2.83;2.63;;;20.40;68.30;;;;;;5016208;28;20447;-92
2023/04/16 16:43:35;;;;;;;2.87;2.67;;;20.30;68.20;;;;;;5017575;28;20449;-93
2023/04/16 16:46:02;;;;;;;2.90;2.70;;;20.30;68.20;;;;;;5032040;28;20431;-93
2023/04/16 16:48:29;;;;;;;2.70;2.50;;;20.30;68.10;;;;;;5038263;28;20477;-94
2023/04/16 16:50:56;;;;;;;2.23;2.13;;;20.30;68.10;;;;;;5018256;28;20783;-94
2023/04/16 16:53:23;;;;;;;2.33;2.23;;;20.30;68.00;;;;;;5015060;28;20512;-93
2023/04/16 16:55:50;;;;;;;3.23;3.03;;;20.30;68.00;;;;;;5015005;28;20474;-93
2023/04/16 16:58:17;;;;;;;3.00;2.80;;;20.20;67.90;;;;;;4996756;28;20486;-93
2023/04/16 17:00:45;;;;;;;2.93;2.73;;;20.20;67.90;;;;;;5014429;28;20475;-94
2023/04/16 17:03:12;;;;;;;2.83;2.63;;;20.30;68.10;;;;;;5017334;28;20502;-93
2023/04/16 17:05:39;;;;;;;2.90;2.70;;;20.20;68.00;;;;;;5017591;28;20435;-94
2023/04/16 17:08:06;;;;;;;2.73;2.53;;;20.30;68.00;;;;;;5017419;28;20506;-93
2023/04/16 17:10:33;;;;;;;2.70;2.50;;;20.20;67.90;;;;;;5017430;28;20541;-94
2023/04/16 17:13:00;;;;;;;2.80;2.60;;;20.30;68.00;;;;;;5017487;28;20479;-94
2023/04/16 17:15:27;;;;;;;3.10;2.90;;;20.30;68.00;;;;;;5017475;28;20451;-94
2023/04/16 17:17:55;;;;;;;2.83;2.63;;;20.20;67.90;;;;;;5017621;28;20508;-94
2023/04/16 17:20:22;;;;;;;2.90;2.70;;;20.20;67.90;;;;;;5017606;28;20459;-95
2023/04/16 17:22:49;;;;;;;2.83;2.63;;;20.20;67.80;;;;;;5018252;28;20543;-94
2023/04/16 17:25:16;;;;;;;2.50;2.30;;;20.20;67.80;;;;;;5017440;28;20474;-94
2023/04/16 17:27:43;;;;;;;3.13;2.93;;;20.20;67.80;;;;;;5017284;28;20981;-94
2023/04/16 17:30:11;;;;;;;2.90;2.70;;;20.20;67.70;;;;;;5017585;28;20457;-94
2023/04/16 17:32:38;;;;;;;2.63;2.43;;;20.20;67.60;;;;;;5017545;28;20479;-94
2023/04/16 17:35:08;;;;;;;2.80;2.60;;;20.30;67.80;;;;;;5017004;28;20502;-94
2023/04/16 17:37:35;;;;;;;2.63;2.43;;;20.20;67.60;;;;;;5016865;28;20462;-94
2023/04/16 17:40:06;;;;;;;2.40;2.30;;;20.20;67.70;;;;;;5017572;28;20922;-94
2023/04/16 17:42:33;;;;;;;2.80;2.60;;;20.20;67.60;;;;;;5017415;28;20513;-94
2023/04/16 17:45:00;;;;;;;2.43;2.23;;;20.20;67.60;;;;;;5016982;28;20518;-94
2023/04/16 17:47:27;;;;;;;2.93;2.73;;;20.20;67.60;;;;;;5017022;28;20541;-94
2023/04/16 17:49:54;;;;;;;3.07;2.83;;;20.20;67.60;;;;;;5017239;28;20526;-94
2023/04/16 17:52:22;;;;;;;2.87;2.63;;;20.20;67.50;;;;;;5016566;28;20455;-94
2023/04/16 17:54:51;;;;;;;2.70;2.50;;;20.20;67.60;;;;;;5016749;28;20568;-94
2023/04/16 17:57:18;;;;;;;3.20;2.97;;;20.20;67.60;;;;;;5016616;28;20479;-94
2023/04/16 17:59:45;;;;;;;3.10;2.90;;;20.20;67.60;;;;;;4999980;28;20458;-91
2023/04/16 18:02:13;;;;;;;4.43;4.03;;;20.20;68.50;;;;;;5016395;28;20518;-95
2023/04/16 18:04:40;;;;;;;3.90;3.60;;;20.10;66.00;;;;;;5016879;28;20971;-95
2023/04/16 18:07:07;;;;;;;4.00;3.70;;;20.10;66.40;;;;;;5016779;28;20451;-93
2023/04/16 18:09:35;;;;;;;3.37;3.07;;;20.10;66.50;;;;;;5016959;28;20538;-96
2023/04/16 18:12:02;;;;;;;2.70;2.40;;;20.10;66.70;;;;;;5023011;28;20550;-94
2023/04/16 18:14:29;;;;;;;2.97;2.77;;;20.10;66.80;;;;;;5038295;28;20431;-94
2023/04/16 18:16:57;;;;;;;3.40;3.20;;;20.10;66.90;;;;;;5038296;28;20441;-94
2023/04/16 18:19:23;;;;;;;3.23;3.03;;;20.30;67.40;;;;;;5037480;28;20464;-95
2023/04/16 18:21:50;;;;;;;5.40;2.77;;;20.30;67.20;;;;;;5020377;28;20474;-93
2023/04/16 18:24:17;;;;;;;3.40;3.00;;;20.10;67.30;;;;;;5018649;28;20506;-93
2023/04/16 18:26:46;;;;;;;3.70;2.93;;;20.10;67.20;;;;;;5016497;28;20474;-92
2023/04/16 18:29:12;;;;;;;7.80;2.93;;;20.10;67.40;;;;;;5016159;28;20493;-92
2023/04/16 18:31:39;;;;;;;3.30;3.07;;;20.10;67.50;;;;;;5016394;28;20455;-93
2023/04/16 18:34:06;;;;;;;3.30;3.10;;;20.10;67.60;;;;;;5016936;28;20471;-94
2023/04/16 18:36:33;;;;;;;3.93;3.37;;;20.30;67.80;;;;;;5016207;28;20538;-96
2023/04/16 18:39:00;;;;;;;3.33;3.13;;;20.20;67.60;;;;;;5015614;28;20451;-95
2023/04/16 18:41:27;;;;;;;2.80;2.60;;;20.20;67.60;;;;;;5017072;28;20454;-96
2023/04/16 18:43:55;;;;;;;3.00;2.80;;;20.20;67.60;;;;;;5016360;28;20435;-96
2023/04/16 18:46:22;;;;;;;3.50;3.20;;;20.10;67.50;;;;;;5015941;28;20452;-96
2023/04/16 18:48:49;;;;;;;3.23;2.93;;;20.20;67.70;;;;;;5016084;28;20584;-94
2023/04/16 18:51:16;;;;;;;2.83;2.63;;;20.20;67.80;;;;;;5016812;28;20474;-93
2023/04/16 18:53:44;;;;;;;3.17;2.87;;;20.20;67.80;;;;;;5015525;28;20498;-94
2023/04/16 18:56:11;;;;;;;3.00;2.70;;;20.20;67.90;;;;;;5016586;28;20486;-94
2023/04/16 18:58:38;;;;;;;2.57;2.37;;;20.20;67.90;;;;;;5016641;28;20783;-93
2023/04/16 19:01:09;;;;;;;2.93;2.73;;;20.20;67.90;;;;;;5016747;28;20479;-93
2023/04/16 19:03:36;;;;;;;4.93;2.97;;;20.20;67.90;;;;;;5015626;28;20479;-94
2023/04/16 19:06:04;;;;;;;3.57;3.37;;;20.20;67.90;;;;;;5015943;28;20961;-96
2023/04/16 19:08:31;;;;;;;3.20;3.00;;;20.20;68.00;;;;;;5016106;28;20478;-93
2023/04/16 19:10:58;;;;;;;3.83;2.80;;;20.20;68.10;;;;;;5016578;28;21001;-96
2023/04/16 19:13:25;;;;;;;2.60;2.40;;;20.20;68.10;;;;;;5018268;28;20447;-96
2023/04/16 19:15:56;;;;;;;3.90;3.17;;;20.20;68.10;;;;;;5016432;28;20458;-93
2023/04/16 19:18:25;;;;;;;2.97;2.77;;;20.30;68.30;;;;;;5016530;28;20451;-96
2023/04/16 19:20:58;;;;;;;3.40;3.10;;;20.20;68.20;;;;;;5017646;28;20506;-93
2023/04/16 19:23:24;;;;;;;3.10;2.80;;;20.20;68.10;;;;;;5017171;28;20535;-96
2023/04/16 19:25:51;;;;;;;3.00;2.70;;;20.30;68.30;;;;;;5027436;28;20475;-93
2023/04/16 19:28:18;;;;;;;3.10;2.90;;;20.30;68.30;;;;;;5039284;28;20493;-91
2023/04/16 19:30:46;;;;;;;4.20;3.90;;;20.20;68.10;;;;;;5024020;28;20505;-92
2023/04/16 19:33:13;;;;;;;2.90;2.60;;;20.20;68.10;;;;;;5016355;28;20451;-92
2023/04/16 19:35:43;;;;;;;2.97;2.77;;;20.20;68.10;;;;;;5014864;28;20769;-96
2023/04/16 19:38:10;;;;;;;2.87;2.67;;;20.20;68.10;;;;;;5015473;28;20447;-92
2023/04/16 19:40:37;;;;;;;3.07;2.87;;;20.20;68.10;;;;;;5016290;28;20453;-96
2023/04/16 19:43:04;;;;;;;3.07;2.70;;;20.20;68.20;;;;;;5017208;28;20942;-93
2023/04/16 19:45:31;;;;;;;2.70;2.50;;;20.20;68.20;;;;;;5016779;28;20439;-91
2023/04/16 19:48:03;;;;;;;3.40;3.10;;;20.20;68.20;;;;;;5015298;28;20571;-94
2023/04/16 19:50:30;;;;;;;6.40;2.80;;;20.20;68.10;;;;;;5015146;28;20452;-96
2023/04/16 19:52:58;;;;;;;3.20;2.90;;;20.30;68.50;;;;;;5014846;28;20536;-95
2023/04/16 19:55:25;;;;;;;4.70;2.83;;;20.30;68.50;;;;;;5014074;28;20998;-95
2023/04/16 19:57:52;;;;;;;3.23;2.87;;;20.30;68.40;;;;;;5014286;28;20514;-93
2023/04/16 20:00:19;;;;;;;3.07;2.87;;;20.40;68.40;;;;;;5014047;28;20545;-93
2023/04/16 20:02:46;;;;;;;2.70;2.50;;;20.30;68.30;;;;;;5013673;28;20904;-93
2023/04/16 20:05:13;;;;;;;3.93;3.63;;;20.20;68.10;;;;;;5014197;28;20538;-95
2023/04/16 20:07:40;;;;;;;2.87;2.67;;;20.20;68.10;;;;;;5014932;28;20547;-94
2023/04/16 20:10:10;;;;;;;3.80;3.40;;;20.20;68.20;;;;;;5014504;28;20482;-93
2023/04/16 20:12:37;;;;;;;2.83;2.63;;;20.20;68.10;;;;;;5014277;28;20447;-93
2023/04/16 20:15:05;;;;;;;2.97;2.77;;;20.20;68.10;;;;;;5015183;28;20801;-93
2023/04/16 20:17:32;;;;;;;2.80;2.60;;;20.20;68.10;;;;;;5014872;28;20459;-93
2023/04/16 20:20:00;;;;;;;3.10;2.87;;;20.20;68.10;;;;;;5014449;28;20497;-96
2023/04/16 20:22:27;;;;;;;2.70;2.50;;;20.20;68.10;;;;;;5014190;28;20443;-95
2023/04/16 20:24:55;;;;;;;2.93;2.70;;;20.20;68.10;;;;;;5014248;28;20502;-95
2023/04/16 20:27:23;;;;;;;2.60;2.40;;;20.20;68.10;;;;;;5014388;28;20568;-93
2023/04/16 20:29:50;;;;;;;3.83;3.50;;;20.20;68.00;;;;;;5014161;28;20483;-94
2023/04/16 20:32:17;;;;;;;2.70;2.50;;;20.20;68.10;;;;;;5014293;28;20457;-93
2023/04/16 20:34:44;;;;;;;2.47;2.30;;;20.10;68.00;;;;;;5013969;28;20451;-93
2023/04/16 20:37:11;;;;;;;3.17;2.97;;;20.20;68.10;;;;;;5017795;28;21018;-93
2023/04/16 20:39:38;;;;;;;3.17;2.87;;;20.30;68.20;;;;;;5018076;28;20482;-93
2023/04/16 20:42:09;;;;;;;3.10;2.70;;;20.10;67.90;;;;;;5018262;28;20450;-93
2023/04/16 20:44:40;;;;;;;2.53;2.33;;;20.10;67.90;;;;;;5018517;28;20451;-96
2023/04/16 20:47:06;;;;;;;3.20;2.90;;;20.10;67.90;;;;;;5018604;28;20447;-93
2023/04/16 20:49:34;;;;;;;3.43;2.80;;;20.10;67.90;;;;;;5018097;28;20486;-93
2023/04/16 20:52:02;;;;;;;2.80;2.60;;;20.20;68.10;;;;;;5017392;28;20527;-93
2023/04/16 20:54:29;;;;;;;2.87;2.67;;;20.10;67.90;;;;;;5017664;28;20467;-95
2023/04/16 20:56:55;;;;;;;2.70;2.50;;;20.10;67.90;;;;;;5017526;28;20534;-96
2023/04/16 20:59:22;;;;;;;2.43;2.33;;;20.10;67.80;;;;;;5017801;28;20451;-95
2023/04/16 21:01:51;;;;;;;2.37;2.27;;;20.10;67.90;;;;;;5017538;28;20489;-93
2023/04/16 21:04:18;;;;;;;3.07;2.87;;;20.10;67.80;;;;;;5018202;28;20450;-93
2023/04/16 21:06:45;;;;;;;3.20;2.90;;;20.10;67.90;;;;;;5017641;28;20534;-93
2023/04/16 21:09:12;;;;;;;3.23;2.87;;;20.10;67.80;;;;;;5017779;28;20502;-95
2023/04/16 21:11:39;;;;;;;2.87;2.67;;;20.10;67.90;;;;;;5024171;28;20483;-93
2023/04/16 21:16:32;;;;;;;3.20;3.00;;;20.10;67.80;;;;;;5043356;23;20489;-93
2023/04/16 21:19:02;;;;;;;2.73;2.53;;;20.20;68.00;;;;;;5041961;28;20191;-96
2023/04/16 21:21:32;;;;;;;2.50;2.30;;;20.10;67.80;;;;;;5039420;28;20525;-93
2023/04/16 21:24:01;;;;;;;2.70;2.50;;;20.10;67.90;;;;;;5043842;28;20522;-94
2023/04/16 21:26:34;;;;;;;2.70;2.60;;;20.10;67.90;;;;;;5029015;28;20477;-93
2023/04/16 21:29:02;;;;;;;2.63;2.43;;;20.20;68.00;;;;;;5043132;28;20482;-95
2023/04/16 21:31:30;;;;;;;2.97;2.73;;;20.10;67.90;;;;;;5042712;28;20468;-94
2023/04/16 21:34:01;;;;;;;3.10;2.80;;;20.10;68.00;;;;;;5042922;28;20448;-96
2023/04/16 21:36:32;;;;;;;2.87;2.67;;;20.10;67.90;;;;;;5043707;28;20453;-92
2023/04/16 21:39:01;;;;;;;3.30;3.10;;;20.10;67.90;;;;;;5044583;28;20516;-95
2023/04/16 21:41:28;;;;;;;2.97;2.77;;;20.10;68.00;;;;;;5043951;28;20457;-93
2023/04/16 21:43:55;;;;;;;2.57;2.37;;;20.00;67.80;;;;;;5044491;28;20454;-95
2023/04/16 21:46:22;;;;;;;2.83;2.60;;;20.00;67.80;;;;;;5041746;28;20458;-93
2023/04/16 21:48:49;;;;;;;3.57;3.27;;;20.00;67.80;;;;;;5038814;28;20480;-93
2023/04/16 21:51:18;;;;;;;3.70;2.50;;;20.10;67.90;;;;;;5036876;28;20437;-93
2023/04/16 21:53:45;;;;;;;2.93;2.70;;;20.00;67.70;;;;;;5037401;28;20466;-96
2023/04/16 21:56:13;;;;;;;3.17;2.97;;;20.00;67.80;;;;;;5038535;28;20469;-93
2023/04/16 21:58:40;;;;;;;3.30;3.10;;;20.00;67.80;;;;;;5037828;28;20457;-94
2023/04/16 22:01:07;;;;;;;2.60;2.40;;;20.10;67.80;;;;;;5037578;28;20538;-96
2023/04/16 22:03:38;;;;;;;3.20;2.90;;;20.10;67.90;;;;;;5037842;28;20505;-92
2023/04/16 22:06:05;;;;;;;3.07;2.87;;;20.00;67.80;;;;;;5039540;28;20885;-95
2023/04/16 22:08:34;;;;;;;2.80;2.60;;;20.00;67.90;;;;;;5058936;28;20454;-92
2023/04/16 22:11:02;;;;;;;2.93;2.73;;;20.00;67.70;;;;;;5058527;28;20509;-96
2023/04/16 22:13:31;;;;;;;2.73;2.53;;;20.00;67.80;;;;;;5036593;28;20533;-93
2023/04/16 22:16:00;;;;;;;4.90;3.10;;;20.00;67.80;;;;;;5035768;28;20493;-96
2023/04/16 22:18:27;;;;;;;2.43;2.27;;;20.00;67.90;;;;;;5036747;28;20454;-96
2023/04/16 22:20:55;;;;;;;2.83;2.27;;;20.00;68.70;;;;;;5036801;28;20459;-95
2023/04/16 22:23:22;;;;;;;2.83;2.63;;;20.00;67.70;;;;;;5036335;28;20831;-93
2023/04/16 22:25:51;;;;;;;3.30;2.93;;;20.00;67.70;;;;;;5035984;28;20806;-93
2023/04/16 22:28:18;;;;;;;3.00;2.80;;;20.00;67.80;;;;;;5035747;28;20447;-96
2023/04/16 22:30:45;;;;;;;3.10;2.90;;;20.10;67.90;;;;;;5035783;28;20562;-96
2023/04/16 22:33:12;;;;;;;2.60;2.40;;;20.00;67.80;;;;;;5036754;28;20478;-96
2023/04/16 22:35:39;;;;;;;2.47;2.37;;;20.00;67.70;;;;;;5035725;28;20971;-93
2023/04/16 22:38:06;;;;;;;3.37;3.17;;;20.00;67.70;;;;;;5035433;28;20480;-96
2023/04/16 22:40:33;;;;;;;2.70;2.50;;;20.00;67.80;;;;;;5035664;28;20462;-93
2023/04/16 22:43:01;;;;;;;3.23;3.03;;;20.00;67.80;;;;;;5035606;28;20969;-95
2023/04/16 22:45:28;;;;;;;2.70;2.50;;;19.90;67.70;;;;;;5035217;28;20549;-93
2023/04/16 22:47:55;;;;;;;2.97;2.77;;;20.00;67.80;;;;;;5035581;28;20481;-94
2023/04/16 22:50:40;;;;;;;3.13;2.83;;;19.90;67.70;;;;;;5035170;28;20602;-93
2023/04/16 22:53:07;;;;;;;2.90;2.70;;;20.00;67.90;;;;;;5035820;28;20422;-96
2023/04/16 22:55:33;;;;;;;3.00;2.80;;;19.90;67.70;;;;;;5035772;28;20929;-93
2023/04/16 22:58:02;;;;;;;3.20;3.00;;;19.90;67.80;;;;;;5036093;28;20457;-95
2023/04/16 23:00:29;;;;;;;3.50;3.20;;;19.90;67.60;;;;;;5043190;28;20470;-93
2023/04/16 23:02:56;;;;;;;3.40;3.10;;;19.90;67.70;;;;;;5057947;28;20472;-93
2023/04/16 23:05:23;;;;;;;3.27;3.07;;;19.90;67.70;;;;;;5058298;28;20443;-93
2023/04/16 23:07:49;;;;;;;3.37;3.07;;;20.00;67.90;;;;;;5054234;28;20791;-93
2023/04/16 23:10:16;;;;;;;3.10;2.90;;;20.00;68.00;;;;;;5038286;28;21057;-93
2023/04/16 23:12:43;;;;;;;3.07;2.87;;;19.90;67.60;;;;;;5037820;28;20529;-93
2023/04/16 23:15:13;;;;;;;3.10;2.90;;;19.90;67.70;;;;;;5036073;28;20512;-93
2023/04/16 23:17:40;;;;;;;2.93;2.73;;;19.90;67.70;;;;;;5035892;28;20445;-93
2023/04/16 23:20:08;;;;;;;2.60;2.37;;;19.90;67.70;;;;;;5027234;28;20459;-93
2023/04/16 23:22:35;;;;;;;2.70;2.50;;;19.90;67.70;;;;;;5035845;28;20485;-96
2023/04/16 23:25:02;;;;;;;3.10;2.90;;;19.90;67.80;;;;;;5035411;28;20473;-96
2023/04/16 23:27:31;;;;;;;2.70;2.50;;;19.90;67.80;;;;;;5034874;28;20448;-93
2023/04/16 23:29:58;;;;;;;2.53;2.33;;;19.90;67.80;;;;;;5034962;28;20478;-95
2023/04/16 23:32:26;;;;;;;2.83;2.63;;;19.90;67.80;;;;;;5035243;28;20828;-96
2023/04/16 23:34:53;;;;;;;2.90;2.70;;;19.90;67.70;;;;;;5035332;28;20875;-96
2023/04/16 23:37:20;;;;;;;3.27;3.07;;;19.90;67.80;;;;;;5035020;28;20453;-92
2023/04/16 23:39:47;;;;;;;2.57;2.37;;;19.90;67.80;;;;;;5035801;28;20468;-92
2023/04/16 23:42:14;;;;;;;2.87;2.67;;;19.90;67.80;;;;;;5035415;28;20442;-93
2023/04/16 23:44:41;;;;;;;2.87;2.67;;;19.90;67.80;;;;;;5034760;28;20466;-93
2023/04/16 23:47:08;;;;;;;2.63;2.47;;;19.90;67.80;;;;;;5035143;28;20468;-94
2023/04/16 23:49:37;;;;;;;3.17;2.97;;;19.90;67.80;;;;;;5017702;28;20527;-93
2023/04/16 23:52:05;;;;;;;2.87;2.63;;;20.00;68.00;;;;;;5035244;28;20460;-94
2023/04/16 23:54:31;;;;;;;2.77;2.40;;;19.90;67.90;;;;;;5034720;28;20506;-93